<?xml version="1.0" encoding="UTF-8" standalone="no" ?>
<gpx xmlns="http://www.topografix.com/GPX/1/1" xmlns:xsi="http://www.w3.org/2001/XMLSchema-instance" xsi:schemaLocation="http://www.topografix.com/GPX/1/1 http://www.topografix.com/GPX/1/1/gpx.xsd" version="1.1" creator="VisuGPX - https://www.visugpx.com">
  <metadata>
    <name>Vacances 2021</name>
  </metadata>
  <trk>
    <name><![CDATA[Journal actif: 2021-08-04 16:35]]></name>
    <trkseg>
      <trkpt lat="46.32795" lon="2.60856">
        <ele>216.43</ele>
        <time>2021-08-04T18:35:03Z</time>
      </trkpt>
      <trkpt lat="46.32801" lon="2.60857">
        <ele>221.24</ele>
        <time>2021-08-04T18:35:05Z</time>
      </trkpt>
      <trkpt lat="46.32829" lon="2.6091">
        <ele>298.15</ele>
        <time>2021-08-04T18:35:25Z</time>
      </trkpt>
      <trkpt lat="46.32808" lon="2.60867">
        <ele>212.11</ele>
        <time>2021-08-04T18:35:52Z</time>
      </trkpt>
      <trkpt lat="46.32816" lon="2.60867">
        <ele>212.11</ele>
        <time>2021-08-04T18:35:53Z</time>
      </trkpt>
      <trkpt lat="46.32816" lon="2.60867">
        <ele>212.11</ele>
        <time>2021-08-04T18:35:54Z</time>
      </trkpt>
      <trkpt lat="46.3282" lon="2.60861">
        <ele>212.11</ele>
        <time>2021-08-04T18:35:55Z</time>
      </trkpt>
      <trkpt lat="46.32821" lon="2.60852">
        <ele>212.59</ele>
        <time>2021-08-04T18:35:56Z</time>
      </trkpt>
      <trkpt lat="46.32822" lon="2.60842">
        <ele>212.59</ele>
        <time>2021-08-04T18:35:57Z</time>
      </trkpt>
      <trkpt lat="46.32824" lon="2.6083">
        <ele>213.07</ele>
        <time>2021-08-04T18:35:58Z</time>
      </trkpt>
      <trkpt lat="46.32827" lon="2.60818">
        <ele>213.07</ele>
        <time>2021-08-04T18:35:59Z</time>
      </trkpt>
      <trkpt lat="46.3283" lon="2.60805">
        <ele>213.55</ele>
        <time>2021-08-04T18:36:00Z</time>
      </trkpt>
      <trkpt lat="46.32868" lon="2.60669">
        <ele>213.07</ele>
        <time>2021-08-04T18:36:08Z</time>
      </trkpt>
      <trkpt lat="46.3294" lon="2.60414">
        <ele>212.11</ele>
        <time>2021-08-04T18:36:19Z</time>
      </trkpt>
      <trkpt lat="46.33007" lon="2.60231">
        <ele>211.63</ele>
        <time>2021-08-04T18:36:28Z</time>
      </trkpt>
      <trkpt lat="46.3309" lon="2.60049">
        <ele>212.11</ele>
        <time>2021-08-04T18:36:37Z</time>
      </trkpt>
      <trkpt lat="46.3309" lon="2.60049">
        <ele>211.63</ele>
        <time>2021-08-04T18:36:38Z</time>
      </trkpt>
      <trkpt lat="46.33103" lon="2.60044">
        <ele>211.63</ele>
        <time>2021-08-04T18:36:39Z</time>
      </trkpt>
      <trkpt lat="46.33103" lon="2.60044">
        <ele>211.63</ele>
        <time>2021-08-04T18:36:40Z</time>
      </trkpt>
      <trkpt lat="46.33122" lon="2.60048">
        <ele>211.15</ele>
        <time>2021-08-04T18:36:41Z</time>
      </trkpt>
      <trkpt lat="46.33122" lon="2.60048">
        <ele>211.15</ele>
        <time>2021-08-04T18:36:42Z</time>
      </trkpt>
      <trkpt lat="46.33128" lon="2.6006">
        <ele>211.15</ele>
        <time>2021-08-04T18:36:43Z</time>
      </trkpt>
      <trkpt lat="46.3316" lon="2.60128">
        <ele>208.26</ele>
        <time>2021-08-04T18:36:50Z</time>
      </trkpt>
      <trkpt lat="46.33179" lon="2.60176">
        <ele>210.19</ele>
        <time>2021-08-04T18:36:56Z</time>
      </trkpt>
      <trkpt lat="46.33224" lon="2.60282">
        <ele>208.74</ele>
        <time>2021-08-04T18:37:03Z</time>
      </trkpt>
      <trkpt lat="46.33243" lon="2.60325">
        <ele>207.78</ele>
        <time>2021-08-04T18:37:06Z</time>
      </trkpt>
      <trkpt lat="46.33247" lon="2.60333">
        <ele>206.82</ele>
        <time>2021-08-04T18:37:07Z</time>
      </trkpt>
      <trkpt lat="46.3325" lon="2.60338">
        <ele>206.34</ele>
        <time>2021-08-04T18:37:08Z</time>
      </trkpt>
      <trkpt lat="46.3325" lon="2.60338">
        <ele>206.34</ele>
        <time>2021-08-04T18:37:09Z</time>
      </trkpt>
      <trkpt lat="46.33265" lon="2.60285">
        <ele>206.34</ele>
        <time>2021-08-04T18:37:14Z</time>
      </trkpt>
      <trkpt lat="46.33243" lon="2.60263">
        <ele>206.82</ele>
        <time>2021-08-04T18:37:17Z</time>
      </trkpt>
      <trkpt lat="46.33244" lon="2.60257">
        <ele>206.82</ele>
        <time>2021-08-04T18:37:18Z</time>
      </trkpt>
      <trkpt lat="46.33249" lon="2.60244">
        <ele>206.82</ele>
        <time>2021-08-04T18:37:19Z</time>
      </trkpt>
      <trkpt lat="46.3325" lon="2.60241">
        <ele>207.3</ele>
        <time>2021-08-04T18:37:31Z</time>
      </trkpt>
      <trkpt lat="46.33253" lon="2.60235">
        <ele>207.3</ele>
        <time>2021-08-04T18:39:54Z</time>
      </trkpt>
      <trkpt lat="46.33255" lon="2.60232">
        <ele>207.3</ele>
        <time>2021-08-04T18:39:55Z</time>
      </trkpt>
      <trkpt lat="46.33264" lon="2.60222">
        <ele>207.3</ele>
        <time>2021-08-04T18:39:56Z</time>
      </trkpt>
      <trkpt lat="46.33267" lon="2.6022">
        <ele>207.3</ele>
        <time>2021-08-04T18:39:57Z</time>
      </trkpt>
      <trkpt lat="46.33269" lon="2.60219">
        <ele>207.3</ele>
        <time>2021-08-04T18:39:58Z</time>
      </trkpt>
      <trkpt lat="46.3327" lon="2.60218">
        <ele>207.3</ele>
        <time>2021-08-04T18:39:59Z</time>
      </trkpt>
      <trkpt lat="46.33272" lon="2.60217">
        <ele>207.3</ele>
        <time>2021-08-04T18:40:00Z</time>
      </trkpt>
      <trkpt lat="46.33275" lon="2.60215">
        <ele>207.3</ele>
        <time>2021-08-04T18:40:01Z</time>
      </trkpt>
      <trkpt lat="46.33278" lon="2.60213">
        <ele>207.3</ele>
        <time>2021-08-04T18:40:02Z</time>
      </trkpt>
      <trkpt lat="46.33281" lon="2.60211">
        <ele>207.3</ele>
        <time>2021-08-04T18:40:03Z</time>
      </trkpt>
      <trkpt lat="46.33284" lon="2.60209">
        <ele>207.3</ele>
        <time>2021-08-04T18:40:04Z</time>
      </trkpt>
      <trkpt lat="46.33286" lon="2.60208">
        <ele>207.3</ele>
        <time>2021-08-04T18:40:05Z</time>
      </trkpt>
      <trkpt lat="46.33293" lon="2.60273">
        <ele>207.3</ele>
        <time>2021-08-04T18:40:11Z</time>
      </trkpt>
      <trkpt lat="46.33265" lon="2.60313">
        <ele>206.82</ele>
        <time>2021-08-04T18:40:16Z</time>
      </trkpt>
      <trkpt lat="46.33244" lon="2.60327">
        <ele>206.82</ele>
        <time>2021-08-04T18:40:18Z</time>
      </trkpt>
      <trkpt lat="46.33244" lon="2.60327">
        <ele>206.34</ele>
        <time>2021-08-04T18:40:19Z</time>
      </trkpt>
      <trkpt lat="46.33235" lon="2.60305">
        <ele>205.38</ele>
        <time>2021-08-04T18:40:25Z</time>
      </trkpt>
      <trkpt lat="46.33231" lon="2.60298">
        <ele>205.38</ele>
        <time>2021-08-04T18:40:26Z</time>
      </trkpt>
      <trkpt lat="46.33193" lon="2.6021">
        <ele>203.46</ele>
        <time>2021-08-04T18:40:34Z</time>
      </trkpt>
      <trkpt lat="46.33132" lon="2.60067">
        <ele>204.42</ele>
        <time>2021-08-04T18:40:45Z</time>
      </trkpt>
      <trkpt lat="46.33123" lon="2.60048">
        <ele>204.42</ele>
        <time>2021-08-04T18:40:47Z</time>
      </trkpt>
      <trkpt lat="46.33119" lon="2.60041">
        <ele>204.42</ele>
        <time>2021-08-04T18:40:48Z</time>
      </trkpt>
      <trkpt lat="46.33121" lon="2.60026">
        <ele>204.42</ele>
        <time>2021-08-04T18:40:49Z</time>
      </trkpt>
      <trkpt lat="46.33119" lon="2.60015">
        <ele>204.42</ele>
        <time>2021-08-04T18:40:50Z</time>
      </trkpt>
      <trkpt lat="46.33114" lon="2.60012">
        <ele>204.42</ele>
        <time>2021-08-04T18:40:51Z</time>
      </trkpt>
      <trkpt lat="46.33109" lon="2.6001">
        <ele>204.9</ele>
        <time>2021-08-04T18:40:52Z</time>
      </trkpt>
      <trkpt lat="46.33106" lon="2.60009">
        <ele>204.9</ele>
        <time>2021-08-04T18:40:53Z</time>
      </trkpt>
      <trkpt lat="46.33102" lon="2.60014">
        <ele>204.9</ele>
        <time>2021-08-04T18:40:54Z</time>
      </trkpt>
      <trkpt lat="46.33096" lon="2.60019">
        <ele>204.9</ele>
        <time>2021-08-04T18:40:55Z</time>
      </trkpt>
      <trkpt lat="46.33096" lon="2.60026">
        <ele>204.9</ele>
        <time>2021-08-04T18:40:56Z</time>
      </trkpt>
      <trkpt lat="46.33046" lon="2.60147">
        <ele>202.49</ele>
        <time>2021-08-04T18:41:06Z</time>
      </trkpt>
      <trkpt lat="46.32979" lon="2.603">
        <ele>201.53</ele>
        <time>2021-08-04T18:41:18Z</time>
      </trkpt>
      <trkpt lat="46.32931" lon="2.60445">
        <ele>202.01</ele>
        <time>2021-08-04T18:41:29Z</time>
      </trkpt>
      <trkpt lat="46.32921" lon="2.60478">
        <ele>203.46</ele>
        <time>2021-08-04T18:41:36Z</time>
      </trkpt>
      <trkpt lat="46.32917" lon="2.60494">
        <ele>203.46</ele>
        <time>2021-08-04T18:41:50Z</time>
      </trkpt>
      <trkpt lat="46.32906" lon="2.60537">
        <ele>203.94</ele>
        <time>2021-08-04T18:42:03Z</time>
      </trkpt>
      <trkpt lat="46.32883" lon="2.60613">
        <ele>204.9</ele>
        <time>2021-08-04T18:42:17Z</time>
      </trkpt>
      <trkpt lat="46.32878" lon="2.60632">
        <ele>204.9</ele>
        <time>2021-08-04T18:42:20Z</time>
      </trkpt>
      <trkpt lat="46.32871" lon="2.60656">
        <ele>204.9</ele>
        <time>2021-08-04T18:42:22Z</time>
      </trkpt>
      <trkpt lat="46.32871" lon="2.60656">
        <ele>204.9</ele>
        <time>2021-08-04T18:42:23Z</time>
      </trkpt>
      <trkpt lat="46.32834" lon="2.60792">
        <ele>206.34</ele>
        <time>2021-08-04T18:42:38Z</time>
      </trkpt>
      <trkpt lat="46.32821" lon="2.60846">
        <ele>207.3</ele>
        <time>2021-08-04T18:42:45Z</time>
      </trkpt>
      <trkpt lat="46.32821" lon="2.60851">
        <ele>207.3</ele>
        <time>2021-08-04T18:42:46Z</time>
      </trkpt>
      <trkpt lat="46.3281" lon="2.60867">
        <ele>207.3</ele>
        <time>2021-08-04T18:42:47Z</time>
      </trkpt>
      <trkpt lat="46.3281" lon="2.60867">
        <ele>206.82</ele>
        <time>2021-08-04T18:42:48Z</time>
      </trkpt>
      <trkpt lat="46.32804" lon="2.60867">
        <ele>206.82</ele>
        <time>2021-08-04T18:42:49Z</time>
      </trkpt>
      <trkpt lat="46.32797" lon="2.60867">
        <ele>206.82</ele>
        <time>2021-08-04T18:42:50Z</time>
      </trkpt>
      <trkpt lat="46.32788" lon="2.60866">
        <ele>206.82</ele>
        <time>2021-08-04T18:42:51Z</time>
      </trkpt>
      <trkpt lat="46.32779" lon="2.60866">
        <ele>206.82</ele>
        <time>2021-08-04T18:42:52Z</time>
      </trkpt>
      <trkpt lat="46.32708" lon="2.60863">
        <ele>206.82</ele>
        <time>2021-08-04T18:43:01Z</time>
      </trkpt>
      <trkpt lat="46.32703" lon="2.60864">
        <ele>207.3</ele>
        <time>2021-08-04T18:43:13Z</time>
      </trkpt>
      <trkpt lat="46.32703" lon="2.60864">
        <ele>207.3</ele>
        <time>2021-08-04T18:43:41Z</time>
      </trkpt>
      <trkpt lat="46.32699" lon="2.60864">
        <ele>207.3</ele>
        <time>2021-08-04T18:43:42Z</time>
      </trkpt>
      <trkpt lat="46.32697" lon="2.60864">
        <ele>207.3</ele>
        <time>2021-08-04T18:43:43Z</time>
      </trkpt>
      <trkpt lat="46.32695" lon="2.60864">
        <ele>207.3</ele>
        <time>2021-08-04T18:43:44Z</time>
      </trkpt>
      <trkpt lat="46.32691" lon="2.60865">
        <ele>207.3</ele>
        <time>2021-08-04T18:43:45Z</time>
      </trkpt>
      <trkpt lat="46.32686" lon="2.60865">
        <ele>207.3</ele>
        <time>2021-08-04T18:43:46Z</time>
      </trkpt>
      <trkpt lat="46.32658" lon="2.60867">
        <ele>206.82</ele>
        <time>2021-08-04T18:43:55Z</time>
      </trkpt>
      <trkpt lat="46.32634" lon="2.60866">
        <ele>207.78</ele>
        <time>2021-08-04T18:44:02Z</time>
      </trkpt>
      <trkpt lat="46.32574" lon="2.60904">
        <ele>210.19</ele>
        <time>2021-08-04T18:44:11Z</time>
      </trkpt>
      <trkpt lat="46.32574" lon="2.60904">
        <ele>210.19</ele>
        <time>2021-08-04T18:44:12Z</time>
      </trkpt>
      <trkpt lat="46.32568" lon="2.60908">
        <ele>210.67</ele>
        <time>2021-08-04T18:44:13Z</time>
      </trkpt>
      <trkpt lat="46.32564" lon="2.6091">
        <ele>210.67</ele>
        <time>2021-08-04T18:44:14Z</time>
      </trkpt>
      <trkpt lat="46.32566" lon="2.60909">
        <ele>209.7</ele>
        <time>2021-08-04T18:44:17Z</time>
      </trkpt>
      <trkpt lat="46.32587" lon="2.60942">
        <ele>209.22</ele>
        <time>2021-08-04T18:44:23Z</time>
      </trkpt>
      <trkpt lat="46.32584" lon="2.60938">
        <ele>208.74</ele>
        <time>2021-08-04T18:59:47Z</time>
      </trkpt>
      <trkpt lat="46.32583" lon="2.60936">
        <ele>208.74</ele>
        <time>2021-08-04T18:59:58Z</time>
      </trkpt>
      <trkpt lat="46.32583" lon="2.60923">
        <ele>208.26</ele>
        <time>2021-08-04T19:00:10Z</time>
      </trkpt>
      <trkpt lat="46.32583" lon="2.60924">
        <ele>208.74</ele>
        <time>2021-08-04T19:00:15Z</time>
      </trkpt>
      <trkpt lat="46.32575" lon="2.60904">
        <ele>208.74</ele>
        <time>2021-08-04T19:00:18Z</time>
      </trkpt>
      <trkpt lat="46.3257" lon="2.60907">
        <ele>208.74</ele>
        <time>2021-08-04T19:00:19Z</time>
      </trkpt>
      <trkpt lat="46.3257" lon="2.60907">
        <ele>208.74</ele>
        <time>2021-08-04T19:00:20Z</time>
      </trkpt>
      <trkpt lat="46.32567" lon="2.60908">
        <ele>208.74</ele>
        <time>2021-08-04T19:00:21Z</time>
      </trkpt>
      <trkpt lat="46.32559" lon="2.60912">
        <ele>208.74</ele>
        <time>2021-08-04T19:00:22Z</time>
      </trkpt>
      <trkpt lat="46.32559" lon="2.60912">
        <ele>208.74</ele>
        <time>2021-08-04T19:00:23Z</time>
      </trkpt>
      <trkpt lat="46.32559" lon="2.60912">
        <ele>208.74</ele>
        <time>2021-08-04T19:00:24Z</time>
      </trkpt>
      <trkpt lat="46.32559" lon="2.60912">
        <ele>208.74</ele>
        <time>2021-08-04T19:00:25Z</time>
      </trkpt>
      <trkpt lat="46.32559" lon="2.60912">
        <ele>208.26</ele>
        <time>2021-08-04T19:00:28Z</time>
      </trkpt>
      <trkpt lat="46.32559" lon="2.60912">
        <ele>208.26</ele>
        <time>2021-08-04T19:00:29Z</time>
      </trkpt>
      <trkpt lat="46.32565" lon="2.60909">
        <ele>208.26</ele>
        <time>2021-08-04T19:00:30Z</time>
      </trkpt>
      <trkpt lat="46.32583" lon="2.609">
        <ele>208.26</ele>
        <time>2021-08-04T19:00:31Z</time>
      </trkpt>
      <trkpt lat="46.32583" lon="2.609">
        <ele>207.78</ele>
        <time>2021-08-04T19:00:32Z</time>
      </trkpt>
      <trkpt lat="46.32576" lon="2.60903">
        <ele>207.78</ele>
        <time>2021-08-04T19:00:33Z</time>
      </trkpt>
      <trkpt lat="46.32597" lon="2.60891">
        <ele>206.82</ele>
        <time>2021-08-04T19:00:48Z</time>
      </trkpt>
      <trkpt lat="46.3261" lon="2.60887">
        <ele>206.82</ele>
        <time>2021-08-04T19:01:21Z</time>
      </trkpt>
      <trkpt lat="46.32625" lon="2.60885">
        <ele>206.34</ele>
        <time>2021-08-04T19:01:40Z</time>
      </trkpt>
      <trkpt lat="46.32651" lon="2.60867">
        <ele>205.38</ele>
        <time>2021-08-04T19:01:44Z</time>
      </trkpt>
      <trkpt lat="46.32651" lon="2.60867">
        <ele>205.38</ele>
        <time>2021-08-04T19:01:45Z</time>
      </trkpt>
      <trkpt lat="46.32658" lon="2.60867">
        <ele>205.38</ele>
        <time>2021-08-04T19:01:46Z</time>
      </trkpt>
      <trkpt lat="46.32747" lon="2.60864">
        <ele>205.86</ele>
        <time>2021-08-04T19:01:59Z</time>
      </trkpt>
      <trkpt lat="46.32779" lon="2.60866">
        <ele>205.86</ele>
        <time>2021-08-04T19:02:07Z</time>
      </trkpt>
      <trkpt lat="46.32803" lon="2.60867">
        <ele>205.86</ele>
        <time>2021-08-04T19:02:28Z</time>
      </trkpt>
      <trkpt lat="46.32808" lon="2.60867">
        <ele>206.34</ele>
        <time>2021-08-04T19:02:29Z</time>
      </trkpt>
      <trkpt lat="46.32813" lon="2.60867">
        <ele>205.86</ele>
        <time>2021-08-04T19:02:30Z</time>
      </trkpt>
      <trkpt lat="46.32817" lon="2.60867">
        <ele>206.34</ele>
        <time>2021-08-04T19:02:31Z</time>
      </trkpt>
      <trkpt lat="46.3282" lon="2.60859">
        <ele>206.34</ele>
        <time>2021-08-04T19:02:32Z</time>
      </trkpt>
      <trkpt lat="46.3282" lon="2.60853">
        <ele>206.34</ele>
        <time>2021-08-04T19:02:33Z</time>
      </trkpt>
      <trkpt lat="46.32822" lon="2.60844">
        <ele>206.82</ele>
        <time>2021-08-04T19:02:34Z</time>
      </trkpt>
      <trkpt lat="46.32823" lon="2.60836">
        <ele>206.82</ele>
        <time>2021-08-04T19:02:35Z</time>
      </trkpt>
      <trkpt lat="46.32848" lon="2.60741">
        <ele>205.86</ele>
        <time>2021-08-04T19:02:47Z</time>
      </trkpt>
      <trkpt lat="46.32861" lon="2.60692">
        <ele>205.38</ele>
        <time>2021-08-04T19:03:01Z</time>
      </trkpt>
      <trkpt lat="46.32886" lon="2.60605">
        <ele>204.9</ele>
        <time>2021-08-04T19:03:11Z</time>
      </trkpt>
      <trkpt lat="46.32924" lon="2.6047">
        <ele>203.46</ele>
        <time>2021-08-04T19:03:21Z</time>
      </trkpt>
      <trkpt lat="46.33003" lon="2.60239">
        <ele>200.09</ele>
        <time>2021-08-04T19:03:35Z</time>
      </trkpt>
      <trkpt lat="46.33081" lon="2.60069">
        <ele>199.13</ele>
        <time>2021-08-04T19:03:48Z</time>
      </trkpt>
      <trkpt lat="46.3309" lon="2.60049">
        <ele>199.61</ele>
        <time>2021-08-04T19:03:55Z</time>
      </trkpt>
      <trkpt lat="46.33092" lon="2.60044">
        <ele>199.61</ele>
        <time>2021-08-04T19:03:56Z</time>
      </trkpt>
      <trkpt lat="46.33112" lon="2.60045">
        <ele>200.09</ele>
        <time>2021-08-04T19:03:59Z</time>
      </trkpt>
      <trkpt lat="46.33117" lon="2.60042">
        <ele>200.57</ele>
        <time>2021-08-04T19:04:00Z</time>
      </trkpt>
      <trkpt lat="46.33121" lon="2.60033">
        <ele>200.57</ele>
        <time>2021-08-04T19:04:01Z</time>
      </trkpt>
      <trkpt lat="46.33121" lon="2.60026">
        <ele>201.05</ele>
        <time>2021-08-04T19:04:02Z</time>
      </trkpt>
      <trkpt lat="46.3312" lon="2.60019">
        <ele>201.05</ele>
        <time>2021-08-04T19:04:03Z</time>
      </trkpt>
      <trkpt lat="46.33119" lon="2.60011">
        <ele>201.05</ele>
        <time>2021-08-04T19:04:04Z</time>
      </trkpt>
      <trkpt lat="46.33115" lon="2.60012">
        <ele>201.53</ele>
        <time>2021-08-04T19:04:05Z</time>
      </trkpt>
      <trkpt lat="46.33105" lon="2.60006">
        <ele>201.53</ele>
        <time>2021-08-04T19:04:06Z</time>
      </trkpt>
      <trkpt lat="46.33044" lon="2.59933">
        <ele>202.98</ele>
        <time>2021-08-04T19:04:18Z</time>
      </trkpt>
      <trkpt lat="46.33038" lon="2.59926">
        <ele>202.98</ele>
        <time>2021-08-04T19:04:20Z</time>
      </trkpt>
      <trkpt lat="46.33035" lon="2.59923">
        <ele>202.98</ele>
        <time>2021-08-04T19:04:21Z</time>
      </trkpt>
      <trkpt lat="46.33032" lon="2.5992">
        <ele>202.98</ele>
        <time>2021-08-04T19:04:22Z</time>
      </trkpt>
      <trkpt lat="46.33035" lon="2.5991">
        <ele>202.49</ele>
        <time>2021-08-04T19:04:23Z</time>
      </trkpt>
      <trkpt lat="46.33038" lon="2.59903">
        <ele>202.01</ele>
        <time>2021-08-04T19:04:24Z</time>
      </trkpt>
      <trkpt lat="46.33042" lon="2.59891">
        <ele>201.05</ele>
        <time>2021-08-04T19:04:25Z</time>
      </trkpt>
      <trkpt lat="46.33039" lon="2.59871">
        <ele>200.09</ele>
        <time>2021-08-04T19:04:26Z</time>
      </trkpt>
      <trkpt lat="46.33039" lon="2.59871">
        <ele>199.61</ele>
        <time>2021-08-04T19:04:27Z</time>
      </trkpt>
      <trkpt lat="46.33029" lon="2.59854">
        <ele>199.13</ele>
        <time>2021-08-04T19:04:28Z</time>
      </trkpt>
      <trkpt lat="46.33023" lon="2.59848">
        <ele>198.65</ele>
        <time>2021-08-04T19:04:29Z</time>
      </trkpt>
      <trkpt lat="46.32978" lon="2.59792">
        <ele>201.53</ele>
        <time>2021-08-04T19:04:36Z</time>
      </trkpt>
      <trkpt lat="46.32971" lon="2.5978">
        <ele>201.53</ele>
        <time>2021-08-04T19:04:37Z</time>
      </trkpt>
      <trkpt lat="46.32897" lon="2.59646">
        <ele>205.86</ele>
        <time>2021-08-04T19:04:51Z</time>
      </trkpt>
      <trkpt lat="46.32845" lon="2.59455">
        <ele>212.11</ele>
        <time>2021-08-04T19:05:03Z</time>
      </trkpt>
      <trkpt lat="46.32825" lon="2.59342">
        <ele>222.68</ele>
        <time>2021-08-04T19:05:11Z</time>
      </trkpt>
      <trkpt lat="46.32821" lon="2.59327">
        <ele>223.64</ele>
        <time>2021-08-04T19:05:12Z</time>
      </trkpt>
      <trkpt lat="46.32779" lon="2.59199">
        <ele>235.18</ele>
        <time>2021-08-04T19:05:21Z</time>
      </trkpt>
      <trkpt lat="46.3273" lon="2.59086">
        <ele>247.2</ele>
        <time>2021-08-04T19:05:32Z</time>
      </trkpt>
      <trkpt lat="46.32697" lon="2.59011">
        <ele>256.81</ele>
        <time>2021-08-04T19:05:42Z</time>
      </trkpt>
      <trkpt lat="46.32668" lon="2.58929">
        <ele>261.62</ele>
        <time>2021-08-04T19:05:53Z</time>
      </trkpt>
      <trkpt lat="46.32668" lon="2.5892">
        <ele>261.62</ele>
        <time>2021-08-04T19:05:54Z</time>
      </trkpt>
      <trkpt lat="46.32667" lon="2.58912">
        <ele>262.1</ele>
        <time>2021-08-04T19:05:55Z</time>
      </trkpt>
      <trkpt lat="46.32666" lon="2.58904">
        <ele>262.1</ele>
        <time>2021-08-04T19:05:56Z</time>
      </trkpt>
      <trkpt lat="46.32671" lon="2.58891">
        <ele>262.1</ele>
        <time>2021-08-04T19:05:57Z</time>
      </trkpt>
      <trkpt lat="46.32671" lon="2.58891">
        <ele>262.1</ele>
        <time>2021-08-04T19:05:58Z</time>
      </trkpt>
      <trkpt lat="46.32675" lon="2.58885">
        <ele>262.1</ele>
        <time>2021-08-04T19:05:59Z</time>
      </trkpt>
      <trkpt lat="46.32681" lon="2.58881">
        <ele>261.62</ele>
        <time>2021-08-04T19:06:00Z</time>
      </trkpt>
      <trkpt lat="46.32792" lon="2.58804">
        <ele>257.29</ele>
        <time>2021-08-04T19:06:13Z</time>
      </trkpt>
      <trkpt lat="46.32837" lon="2.58712">
        <ele>252</ele>
        <time>2021-08-04T19:06:21Z</time>
      </trkpt>
      <trkpt lat="46.32841" lon="2.58697">
        <ele>251.04</ele>
        <time>2021-08-04T19:06:22Z</time>
      </trkpt>
      <trkpt lat="46.32845" lon="2.58685">
        <ele>250.08</ele>
        <time>2021-08-04T19:06:23Z</time>
      </trkpt>
      <trkpt lat="46.32845" lon="2.5867">
        <ele>249.6</ele>
        <time>2021-08-04T19:06:24Z</time>
      </trkpt>
      <trkpt lat="46.32845" lon="2.58656">
        <ele>249.6</ele>
        <time>2021-08-04T19:06:25Z</time>
      </trkpt>
      <trkpt lat="46.32845" lon="2.58644">
        <ele>249.6</ele>
        <time>2021-08-04T19:06:26Z</time>
      </trkpt>
      <trkpt lat="46.32845" lon="2.5863">
        <ele>249.6</ele>
        <time>2021-08-04T19:06:27Z</time>
      </trkpt>
      <trkpt lat="46.32841" lon="2.58618">
        <ele>249.12</ele>
        <time>2021-08-04T19:06:28Z</time>
      </trkpt>
      <trkpt lat="46.32837" lon="2.58607">
        <ele>248.16</ele>
        <time>2021-08-04T19:06:29Z</time>
      </trkpt>
      <trkpt lat="46.32833" lon="2.58597">
        <ele>247.68</ele>
        <time>2021-08-04T19:06:30Z</time>
      </trkpt>
      <trkpt lat="46.32829" lon="2.58586">
        <ele>247.2</ele>
        <time>2021-08-04T19:06:31Z</time>
      </trkpt>
      <trkpt lat="46.32825" lon="2.58575">
        <ele>247.2</ele>
        <time>2021-08-04T19:06:32Z</time>
      </trkpt>
      <trkpt lat="46.32803" lon="2.58512">
        <ele>242.39</ele>
        <time>2021-08-04T19:06:37Z</time>
      </trkpt>
      <trkpt lat="46.32799" lon="2.58497">
        <ele>241.43</ele>
        <time>2021-08-04T19:06:38Z</time>
      </trkpt>
      <trkpt lat="46.32796" lon="2.58483">
        <ele>240.95</ele>
        <time>2021-08-04T19:06:39Z</time>
      </trkpt>
      <trkpt lat="46.32795" lon="2.5847">
        <ele>240.95</ele>
        <time>2021-08-04T19:06:40Z</time>
      </trkpt>
      <trkpt lat="46.32795" lon="2.5846">
        <ele>240.47</ele>
        <time>2021-08-04T19:06:41Z</time>
      </trkpt>
      <trkpt lat="46.32795" lon="2.58451">
        <ele>240.47</ele>
        <time>2021-08-04T19:06:42Z</time>
      </trkpt>
      <trkpt lat="46.32795" lon="2.58429">
        <ele>240.47</ele>
        <time>2021-08-04T19:06:49Z</time>
      </trkpt>
      <trkpt lat="46.32796" lon="2.58396">
        <ele>239.02</ele>
        <time>2021-08-04T19:07:16Z</time>
      </trkpt>
      <trkpt lat="46.32809" lon="2.5836">
        <ele>237.58</ele>
        <time>2021-08-04T19:07:20Z</time>
      </trkpt>
      <trkpt lat="46.32813" lon="2.58351">
        <ele>237.1</ele>
        <time>2021-08-04T19:07:21Z</time>
      </trkpt>
      <trkpt lat="46.32817" lon="2.5834">
        <ele>236.62</ele>
        <time>2021-08-04T19:07:22Z</time>
      </trkpt>
      <trkpt lat="46.32885" lon="2.58252">
        <ele>231.81</ele>
        <time>2021-08-04T19:07:33Z</time>
      </trkpt>
      <trkpt lat="46.32892" lon="2.58243">
        <ele>230.85</ele>
        <time>2021-08-04T19:07:35Z</time>
      </trkpt>
      <trkpt lat="46.32899" lon="2.58239">
        <ele>230.85</ele>
        <time>2021-08-04T19:07:36Z</time>
      </trkpt>
      <trkpt lat="46.32905" lon="2.58237">
        <ele>230.37</ele>
        <time>2021-08-04T19:07:37Z</time>
      </trkpt>
      <trkpt lat="46.32907" lon="2.58231">
        <ele>229.89</ele>
        <time>2021-08-04T19:07:38Z</time>
      </trkpt>
      <trkpt lat="46.32908" lon="2.58224">
        <ele>229.41</ele>
        <time>2021-08-04T19:07:39Z</time>
      </trkpt>
      <trkpt lat="46.32911" lon="2.58213">
        <ele>229.41</ele>
        <time>2021-08-04T19:07:40Z</time>
      </trkpt>
      <trkpt lat="46.32915" lon="2.58205">
        <ele>229.41</ele>
        <time>2021-08-04T19:07:41Z</time>
      </trkpt>
      <trkpt lat="46.32922" lon="2.58186">
        <ele>229.41</ele>
        <time>2021-08-04T19:07:42Z</time>
      </trkpt>
    </trkseg>
  </trk>
</gpx>